sensor_id;sensor_type;location;lat;lon;timestamp;P1;durP1;ratioP1;P2;durP2;ratioP2
7410;SDS011;3747;48.628;9.058;2022-07-29T00:01:29;12.77;;;11.47;;
7410;SDS011;3747;48.628;9.058;2022-07-29T00:03:56;13.07;;;11.77;;
7410;SDS011;3747;48.628;9.058;2022-07-29T00:06:23;13.50;;;12.33;;
7410;SDS011;3747;48.628;9.058;2022-07-29T00:08:49;12.47;;;11.47;;
7410;SDS011;3747;48.628;9.058;2022-07-29T00:11:16;13.07;;;11.77;;
7410;SDS011;3747;48.628;9.058;2022-07-29T00:13:43;13.17;;;11.97;;
7410;SDS011;3747;48.628;9.058;2022-07-29T00:16:09;14.83;;;13.43;;
7410;SDS011;3747;48.628;9.058;2022-07-29T00:18:37;15.30;;;13.83;;
7410;SDS011;3747;48.628;9.058;2022-07-29T00:21:04;16.03;;;14.33;;
7410;SDS011;3747;48.628;9.058;2022-07-29T00:23:31;15.10;;;13.50;;
7410;SDS011;3747;48.628;9.058;2022-07-29T00:25:57;13.87;;;12.50;;
7410;SDS011;3747;48.628;9.058;2022-07-29T00:28:24;14.03;;;12.73;;
7410;SDS011;3747;48.628;9.058;2022-07-29T00:30:51;14.20;;;12.80;;
7410;SDS011;3747;48.628;9.058;2022-07-29T00:33:17;14.27;;;12.77;;
7410;SDS011;3747;48.628;9.058;2022-07-29T00:35:45;13.70;;;12.40;;
7410;SDS011;3747;48.628;9.058;2022-07-29T00:38:12;12.90;;;11.60;;
7410;SDS011;3747;48.628;9.058;2022-07-29T00:40:39;12.67;;;11.50;;
7410;SDS011;3747;48.628;9.058;2022-07-29T00:43:06;12.77;;;11.47;;
7410;SDS011;3747;48.628;9.058;2022-07-29T00:45:33;12.43;;;11.27;;
7410;SDS011;3747;48.628;9.058;2022-07-29T00:48:00;13.50;;;12.33;;
7410;SDS011;3747;48.628;9.058;2022-07-29T00:50:28;11.60;;;10.60;;
7410;SDS011;3747;48.628;9.058;2022-07-29T00:52:56;11.73;;;10.37;;
7410;SDS011;3747;48.628;9.058;2022-07-29T00:55:23;11.10;;;10.00;;
7410;SDS011;3747;48.628;9.058;2022-07-29T00:57:50;11.53;;;10.53;;
7410;SDS011;3747;48.628;9.058;2022-07-29T01:00:19;10.90;;;9.90;;
7410;SDS011;3747;48.628;9.058;2022-07-29T01:02:46;10.60;;;9.73;;
7410;SDS011;3747;48.628;9.058;2022-07-29T01:05:14;10.50;;;9.40;;
7410;SDS011;3747;48.628;9.058;2022-07-29T01:07:42;11.43;;;10.37;;
7410;SDS011;3747;48.628;9.058;2022-07-29T01:10:12;11.53;;;10.50;;
7410;SDS011;3747;48.628;9.058;2022-07-29T01:12:40;11.73;;;10.70;;
7410;SDS011;3747;48.628;9.058;2022-07-29T01:15:09;13.43;;;12.13;;
7410;SDS011;3747;48.628;9.058;2022-07-29T01:17:38;14.30;;;12.33;;
7410;SDS011;3747;48.628;9.058;2022-07-29T01:20:11;12.33;;;11.23;;
7410;SDS011;3747;48.628;9.058;2022-07-29T01:22:44;12.97;;;11.67;;
7410;SDS011;3747;48.628;9.058;2022-07-29T01:25:32;14.07;;;12.13;;
7410;SDS011;3747;48.628;9.058;2022-07-29T01:31:11;12.83;;;11.63;;
7410;SDS011;3747;48.628;9.058;2022-07-29T01:33:43;11.67;;;10.63;;
7410;SDS011;3747;48.628;9.058;2022-07-29T01:36:16;11.17;;;10.17;;
7410;SDS011;3747;48.628;9.058;2022-07-29T01:38:59;11.43;;;10.33;;
7410;SDS011;3747;48.628;9.058;2022-07-29T01:41:31;10.93;;;9.93;;
7410;SDS011;3747;48.628;9.058;2022-07-29T01:44:01;10.93;;;9.83;;
7410;SDS011;3747;48.628;9.058;2022-07-29T01:46:37;11.10;;;10.03;;
7410;SDS011;3747;48.628;9.058;2022-07-29T01:49:08;11.60;;;10.50;;
7410;SDS011;3747;48.628;9.058;2022-07-29T01:51:41;11.03;;;9.93;;
7410;SDS011;3747;48.628;9.058;2022-07-29T01:54:13;9.93;;;9.03;;
7410;SDS011;3747;48.628;9.058;2022-07-29T01:56:44;11.60;;;10.57;;
7410;SDS011;3747;48.628;9.058;2022-07-29T01:59:13;11.73;;;10.63;;
7410;SDS011;3747;48.628;9.058;2022-07-29T02:01:42;10.83;;;9.83;;
7410;SDS011;3747;48.628;9.058;2022-07-29T02:04:10;11.20;;;9.90;;
7410;SDS011;3747;48.628;9.058;2022-07-29T02:06:38;12.03;;;10.70;;
7410;SDS011;3747;48.628;9.058;2022-07-29T02:09:08;10.67;;;9.70;;
7410;SDS011;3747;48.628;9.058;2022-07-29T02:11:38;10.93;;;9.93;;
7410;SDS011;3747;48.628;9.058;2022-07-29T02:14:06;11.90;;;10.80;;
7410;SDS011;3747;48.628;9.058;2022-07-29T02:16:34;11.60;;;10.60;;
7410;SDS011;3747;48.628;9.058;2022-07-29T02:19:05;11.67;;;10.47;;
7410;SDS011;3747;48.628;9.058;2022-07-29T02:21:34;11.97;;;10.77;;
7410;SDS011;3747;48.628;9.058;2022-07-29T02:24:02;11.67;;;10.67;;
7410;SDS011;3747;48.628;9.058;2022-07-29T02:26:30;13.10;;;10.77;;
7410;SDS011;3747;48.628;9.058;2022-07-29T02:28:59;13.67;;;10.73;;
7410;SDS011;3747;48.628;9.058;2022-07-29T02:31:28;11.90;;;10.90;;
7410;SDS011;3747;48.628;9.058;2022-07-29T02:33:59;10.57;;;9.70;;
7410;SDS011;3747;48.628;9.058;2022-07-29T02:36:29;11.17;;;10.17;;
7410;SDS011;3747;48.628;9.058;2022-07-29T02:38:57;12.07;;;10.87;;
7410;SDS011;3747;48.628;9.058;2022-07-29T02:41:26;12.03;;;10.83;;
7410;SDS011;3747;48.628;9.058;2022-07-29T02:43:56;10.43;;;9.53;;
7410;SDS011;3747;48.628;9.058;2022-07-29T02:46:28;9.83;;;8.93;;
7410;SDS011;3747;48.628;9.058;2022-07-29T02:48:58;9.33;;;8.53;;
7410;SDS011;3747;48.628;9.058;2022-07-29T02:51:32;9.47;;;8.57;;
7410;SDS011;3747;48.628;9.058;2022-07-29T02:54:04;9.00;;;8.20;;
7410;SDS011;3747;48.628;9.058;2022-07-29T02:56:33;10.30;;;9.40;;
7410;SDS011;3747;48.628;9.058;2022-07-29T02:59:03;10.70;;;9.80;;
7410;SDS011;3747;48.628;9.058;2022-07-29T03:01:33;11.00;;;9.83;;
7410;SDS011;3747;48.628;9.058;2022-07-29T03:04:04;10.23;;;9.23;;
7410;SDS011;3747;48.628;9.058;2022-07-29T03:06:33;10.73;;;9.57;;
7410;SDS011;3747;48.628;9.058;2022-07-29T03:09:00;10.03;;;9.03;;
7410;SDS011;3747;48.628;9.058;2022-07-29T03:11:27;9.73;;;8.77;;
7410;SDS011;3747;48.628;9.058;2022-07-29T03:13:55;9.33;;;8.40;;
7410;SDS011;3747;48.628;9.058;2022-07-29T03:16:22;9.50;;;8.50;;
7410;SDS011;3747;48.628;9.058;2022-07-29T03:18:49;10.40;;;9.50;;
7410;SDS011;3747;48.628;9.058;2022-07-29T03:21:17;9.93;;;9.03;;
7410;SDS011;3747;48.628;9.058;2022-07-29T03:23:45;9.60;;;8.70;;
7410;SDS011;3747;48.628;9.058;2022-07-29T03:26:12;9.53;;;8.60;;
7410;SDS011;3747;48.628;9.058;2022-07-29T03:28:38;10.57;;;9.57;;
7410;SDS011;3747;48.628;9.058;2022-07-29T03:31:05;10.00;;;9.03;;
7410;SDS011;3747;48.628;9.058;2022-07-29T03:33:32;10.00;;;9.03;;
7410;SDS011;3747;48.628;9.058;2022-07-29T03:35:59;10.37;;;9.37;;
7410;SDS011;3747;48.628;9.058;2022-07-29T03:38:27;10.97;;;10.03;;
7410;SDS011;3747;48.628;9.058;2022-07-29T03:40:58;11.30;;;10.20;;
7410;SDS011;3747;48.628;9.058;2022-07-29T03:43:29;11.37;;;10.17;;
7410;SDS011;3747;48.628;9.058;2022-07-29T03:45:58;11.90;;;10.80;;
7410;SDS011;3747;48.628;9.058;2022-07-29T03:48:26;12.93;;;11.03;;
7410;SDS011;3747;48.628;9.058;2022-07-29T03:50:57;12.40;;;11.07;;
7410;SDS011;3747;48.628;9.058;2022-07-29T03:53:24;12.23;;;10.93;;
7410;SDS011;3747;48.628;9.058;2022-07-29T03:55:52;14.37;;;12.97;;
7410;SDS011;3747;48.628;9.058;2022-07-29T03:58:23;14.20;;;12.70;;
7410;SDS011;3747;48.628;9.058;2022-07-29T04:00:51;11.63;;;10.53;;
7410;SDS011;3747;48.628;9.058;2022-07-29T04:03:19;12.37;;;11.20;;
7410;SDS011;3747;48.628;9.058;2022-07-29T04:05:57;14.73;;;13.23;;
7410;SDS011;3747;48.628;9.058;2022-07-29T04:08:24;14.77;;;13.27;;
7410;SDS011;3747;48.628;9.058;2022-07-29T04:10:51;14.63;;;12.20;;
7410;SDS011;3747;48.628;9.058;2022-07-29T04:13:18;15.23;;;12.03;;
7410;SDS011;3747;48.628;9.058;2022-07-29T04:15:46;13.70;;;12.27;;
7410;SDS011;3747;48.628;9.058;2022-07-29T04:18:13;12.37;;;11.17;;
7410;SDS011;3747;48.628;9.058;2022-07-29T04:20:39;11.97;;;10.77;;
7410;SDS011;3747;48.628;9.058;2022-07-29T04:23:06;10.27;;;9.20;;
7410;SDS011;3747;48.628;9.058;2022-07-29T04:25:33;10.37;;;9.47;;
7410;SDS011;3747;48.628;9.058;2022-07-29T04:28:03;9.90;;;8.90;;
7410;SDS011;3747;48.628;9.058;2022-07-29T04:30:30;9.33;;;8.43;;
7410;SDS011;3747;48.628;9.058;2022-07-29T04:32:59;11.27;;;9.27;;
7410;SDS011;3747;48.628;9.058;2022-07-29T04:35:27;10.33;;;9.40;;
7410;SDS011;3747;48.628;9.058;2022-07-29T04:37:54;10.90;;;10.00;;
7410;SDS011;3747;48.628;9.058;2022-07-29T04:40:21;10.17;;;9.17;;
7410;SDS011;3747;48.628;9.058;2022-07-29T04:42:48;11.00;;;10.00;;
7410;SDS011;3747;48.628;9.058;2022-07-29T04:45:15;10.30;;;9.30;;
7410;SDS011;3747;48.628;9.058;2022-07-29T04:47:42;12.70;;;10.93;;
7410;SDS011;3747;48.628;9.058;2022-07-29T04:50:10;10.57;;;9.67;;
7410;SDS011;3747;48.628;9.058;2022-07-29T04:52:37;12.13;;;9.97;;
7410;SDS011;3747;48.628;9.058;2022-07-29T04:55:04;10.93;;;9.83;;
7410;SDS011;3747;48.628;9.058;2022-07-29T04:57:32;11.67;;;10.43;;
7410;SDS011;3747;48.628;9.058;2022-07-29T04:59:59;11.00;;;10.00;;
7410;SDS011;3747;48.628;9.058;2022-07-29T05:02:25;11.77;;;10.63;;
7410;SDS011;3747;48.628;9.058;2022-07-29T05:04:52;11.33;;;10.10;;
7410;SDS011;3747;48.628;9.058;2022-07-29T05:07:20;10.27;;;9.23;;
7410;SDS011;3747;48.628;9.058;2022-07-29T05:09:47;10.17;;;9.37;;
7410;SDS011;3747;48.628;9.058;2022-07-29T05:12:13;8.27;;;7.67;;
7410;SDS011;3747;48.628;9.058;2022-07-29T05:14:40;8.60;;;7.80;;
7410;SDS011;3747;48.628;9.058;2022-07-29T05:17:07;7.07;;;6.57;;
7410;SDS011;3747;48.628;9.058;2022-07-29T05:19:33;6.10;;;5.60;;
7410;SDS011;3747;48.628;9.058;2022-07-29T05:22:00;5.73;;;5.30;;
7410;SDS011;3747;48.628;9.058;2022-07-29T05:24:28;5.33;;;4.83;;
7410;SDS011;3747;48.628;9.058;2022-07-29T05:26:55;4.70;;;4.33;;
7410;SDS011;3747;48.628;9.058;2022-07-29T05:29:22;5.27;;;4.73;;
7410;SDS011;3747;48.628;9.058;2022-07-29T05:31:48;4.53;;;4.23;;
7410;SDS011;3747;48.628;9.058;2022-07-29T05:34:16;5.87;;;4.60;;
7410;SDS011;3747;48.628;9.058;2022-07-29T05:36:43;4.60;;;4.23;;
7410;SDS011;3747;48.628;9.058;2022-07-29T05:39:10;4.93;;;4.43;;
7410;SDS011;3747;48.628;9.058;2022-07-29T05:41:39;5.57;;;5.10;;
7410;SDS011;3747;48.628;9.058;2022-07-29T05:44:06;4.67;;;4.27;;
7410;SDS011;3747;48.628;9.058;2022-07-29T05:46:32;4.60;;;4.27;;
7410;SDS011;3747;48.628;9.058;2022-07-29T05:48:59;4.30;;;4.00;;
7410;SDS011;3747;48.628;9.058;2022-07-29T05:51:27;4.43;;;3.97;;
7410;SDS011;3747;48.628;9.058;2022-07-29T05:53:54;4.30;;;4.00;;
7410;SDS011;3747;48.628;9.058;2022-07-29T05:56:21;4.10;;;3.80;;
7410;SDS011;3747;48.628;9.058;2022-07-29T05:58:49;4.20;;;3.90;;
7410;SDS011;3747;48.628;9.058;2022-07-29T06:01:16;4.13;;;3.63;;
7410;SDS011;3747;48.628;9.058;2022-07-29T06:03:43;4.40;;;4.00;;
7410;SDS011;3747;48.628;9.058;2022-07-29T06:06:10;4.30;;;4.00;;
7410;SDS011;3747;48.628;9.058;2022-07-29T06:08:36;4.17;;;3.80;;
7410;SDS011;3747;48.628;9.058;2022-07-29T06:11:05;3.70;;;3.40;;
7410;SDS011;3747;48.628;9.058;2022-07-29T06:13:32;3.77;;;3.47;;
7410;SDS011;3747;48.628;9.058;2022-07-29T06:16:00;3.87;;;2.70;;
7410;SDS011;3747;48.628;9.058;2022-07-29T06:18:27;3.70;;;3.27;;
7410;SDS011;3747;48.628;9.058;2022-07-29T06:20:58;4.10;;;3.70;;
7410;SDS011;3747;48.628;9.058;2022-07-29T06:23:25;3.33;;;3.00;;
7410;SDS011;3747;48.628;9.058;2022-07-29T06:25:51;3.60;;;2.83;;
7410;SDS011;3747;48.628;9.058;2022-07-29T06:28:18;3.90;;;2.77;;
7410;SDS011;3747;48.628;9.058;2022-07-29T06:30:45;4.20;;;2.97;;
7410;SDS011;3747;48.628;9.058;2022-07-29T06:33:17;2.90;;;2.67;;
7410;SDS011;3747;48.628;9.058;2022-07-29T06:35:46;4.90;;;2.93;;
7410;SDS011;3747;48.628;9.058;2022-07-29T06:38:14;3.10;;;2.90;;
7410;SDS011;3747;48.628;9.058;2022-07-29T06:40:41;3.23;;;2.93;;
7410;SDS011;3747;48.628;9.058;2022-07-29T06:43:26;3.63;;;3.33;;
7410;SDS011;3747;48.628;9.058;2022-07-29T06:45:56;4.33;;;3.03;;
7410;SDS011;3747;48.628;9.058;2022-07-29T06:48:25;3.20;;;2.87;;
7410;SDS011;3747;48.628;9.058;2022-07-29T06:50:52;3.47;;;3.07;;
7410;SDS011;3747;48.628;9.058;2022-07-29T06:53:19;3.37;;;3.07;;
7410;SDS011;3747;48.628;9.058;2022-07-29T06:55:46;3.27;;;2.97;;
7410;SDS011;3747;48.628;9.058;2022-07-29T06:58:13;3.47;;;3.17;;
7410;SDS011;3747;48.628;9.058;2022-07-29T07:00:41;4.20;;;3.80;;
7410;SDS011;3747;48.628;9.058;2022-07-29T07:03:07;3.73;;;3.30;;
7410;SDS011;3747;48.628;9.058;2022-07-29T07:05:35;3.50;;;3.20;;
7410;SDS011;3747;48.628;9.058;2022-07-29T07:08:02;3.53;;;3.23;;
7410;SDS011;3747;48.628;9.058;2022-07-29T07:10:29;4.43;;;2.90;;
7410;SDS011;3747;48.628;9.058;2022-07-29T07:12:56;4.67;;;3.33;;
7410;SDS011;3747;48.628;9.058;2022-07-29T07:15:23;4.50;;;3.30;;
7410;SDS011;3747;48.628;9.058;2022-07-29T07:17:50;3.93;;;3.50;;
7410;SDS011;3747;48.628;9.058;2022-07-29T07:20:19;3.40;;;3.10;;
7410;SDS011;3747;48.628;9.058;2022-07-29T07:22:47;3.07;;;2.77;;
7410;SDS011;3747;48.628;9.058;2022-07-29T07:25:14;3.33;;;3.03;;
7410;SDS011;3747;48.628;9.058;2022-07-29T07:27:42;3.30;;;3.10;;
7410;SDS011;3747;48.628;9.058;2022-07-29T07:30:09;3.60;;;3.30;;
7410;SDS011;3747;48.628;9.058;2022-07-29T07:32:37;3.17;;;2.87;;
7410;SDS011;3747;48.628;9.058;2022-07-29T07:35:04;3.30;;;3.00;;
7410;SDS011;3747;48.628;9.058;2022-07-29T07:37:32;3.20;;;3.00;;
7410;SDS011;3747;48.628;9.058;2022-07-29T07:40:00;3.67;;;3.37;;
7410;SDS011;3747;48.628;9.058;2022-07-29T07:42:28;3.80;;;3.30;;
7410;SDS011;3747;48.628;9.058;2022-07-29T07:44:56;3.33;;;3.10;;
7410;SDS011;3747;48.628;9.058;2022-07-29T07:47:22;3.70;;;3.33;;
7410;SDS011;3747;48.628;9.058;2022-07-29T07:49:49;5.87;;;3.50;;
7410;SDS011;3747;48.628;9.058;2022-07-29T07:52:17;7.57;;;3.57;;
7410;SDS011;3747;48.628;9.058;2022-07-29T07:54:45;5.50;;;3.33;;
7410;SDS011;3747;48.628;9.058;2022-07-29T07:57:13;4.13;;;3.83;;
7410;SDS011;3747;48.628;9.058;2022-07-29T07:59:40;3.70;;;3.33;;
7410;SDS011;3747;48.628;9.058;2022-07-29T08:02:07;4.47;;;4.07;;
7410;SDS011;3747;48.628;9.058;2022-07-29T08:04:35;3.90;;;3.60;;
7410;SDS011;3747;48.628;9.058;2022-07-29T08:07:02;4.07;;;3.77;;
7410;SDS011;3747;48.628;9.058;2022-07-29T08:09:28;4.30;;;3.90;;
7410;SDS011;3747;48.628;9.058;2022-07-29T08:11:56;6.60;;;4.10;;
7410;SDS011;3747;48.628;9.058;2022-07-29T08:14:25;5.47;;;3.80;;
7410;SDS011;3747;48.628;9.058;2022-07-29T08:16:51;4.27;;;3.30;;
7410;SDS011;3747;48.628;9.058;2022-07-29T08:19:18;4.50;;;3.70;;
7410;SDS011;3747;48.628;9.058;2022-07-29T08:21:45;4.07;;;3.63;;
7410;SDS011;3747;48.628;9.058;2022-07-29T08:24:12;6.93;;;3.93;;
7410;SDS011;3747;48.628;9.058;2022-07-29T08:26:56;4.90;;;3.73;;
7410;SDS011;3747;48.628;9.058;2022-07-29T08:29:23;4.00;;;3.50;;
7410;SDS011;3747;48.628;9.058;2022-07-29T08:31:50;3.90;;;3.60;;
7410;SDS011;3747;48.628;9.058;2022-07-29T08:34:17;3.57;;;3.27;;
7410;SDS011;3747;48.628;9.058;2022-07-29T08:36:44;4.47;;;4.07;;
7410;SDS011;3747;48.628;9.058;2022-07-29T08:39:11;3.60;;;3.40;;
7410;SDS011;3747;48.628;9.058;2022-07-29T08:41:38;5.33;;;3.83;;
7410;SDS011;3747;48.628;9.058;2022-07-29T08:44:04;4.07;;;3.67;;
7410;SDS011;3747;48.628;9.058;2022-07-29T08:46:32;5.00;;;3.83;;
7410;SDS011;3747;48.628;9.058;2022-07-29T08:49:00;5.57;;;4.00;;
7410;SDS011;3747;48.628;9.058;2022-07-29T08:51:28;4.03;;;3.50;;
7410;SDS011;3747;48.628;9.058;2022-07-29T08:53:55;4.63;;;3.75;;
7410;SDS011;3747;48.628;9.058;2022-07-29T08:56:23;4.88;;;3.90;;
7410;SDS011;3747;48.628;9.058;2022-07-29T08:58:50;4.18;;;3.88;;
7410;SDS011;3747;48.628;9.058;2022-07-29T09:01:17;6.78;;;3.95;;
7410;SDS011;3747;48.628;9.058;2022-07-29T09:03:49;5.20;;;3.97;;
7410;SDS011;3747;48.628;9.058;2022-07-29T09:06:20;4.53;;;4.22;;
7410;SDS011;3747;48.628;9.058;2022-07-29T09:08:47;3.72;;;3.42;;
7410;SDS011;3747;48.628;9.058;2022-07-29T09:11:14;5.00;;;3.78;;
7410;SDS011;3747;48.628;9.058;2022-07-29T09:13:41;4.25;;;3.95;;
7410;SDS011;3747;48.628;9.058;2022-07-29T09:16:08;3.80;;;3.50;;
7410;SDS011;3747;48.628;9.058;2022-07-29T09:18:35;3.45;;;3.15;;
7410;SDS011;3747;48.628;9.058;2022-07-29T09:21:04;3.50;;;3.20;;
7410;SDS011;3747;48.628;9.058;2022-07-29T09:23:59;3.70;;;3.50;;
7410;SDS011;3747;48.628;9.058;2022-07-29T09:26:27;5.00;;;3.65;;
7410;SDS011;3747;48.628;9.058;2022-07-29T09:28:55;4.75;;;4.35;;
7410;SDS011;3747;48.628;9.058;2022-07-29T09:31:26;4.78;;;4.10;;
7410;SDS011;3747;48.628;9.058;2022-07-29T09:33:59;5.93;;;4.35;;
7410;SDS011;3747;48.628;9.058;2022-07-29T09:36:27;4.97;;;4.47;;
7410;SDS011;3747;48.628;9.058;2022-07-29T09:38:57;4.93;;;3.70;;
7410;SDS011;3747;48.628;9.058;2022-07-29T09:41:24;4.40;;;3.93;;
7410;SDS011;3747;48.628;9.058;2022-07-29T09:43:55;6.47;;;4.50;;
7410;SDS011;3747;48.628;9.058;2022-07-29T09:46:22;4.70;;;4.40;;
7410;SDS011;3747;48.628;9.058;2022-07-29T09:49:06;4.60;;;4.20;;
7410;SDS011;3747;48.628;9.058;2022-07-29T09:51:35;5.13;;;4.03;;
7410;SDS011;3747;48.628;9.058;2022-07-29T09:54:02;4.60;;;4.13;;
7410;SDS011;3747;48.628;9.058;2022-07-29T09:56:48;5.03;;;4.10;;
7410;SDS011;3747;48.628;9.058;2022-07-29T09:59:15;4.47;;;3.90;;
7410;SDS011;3747;48.628;9.058;2022-07-29T10:01:42;4.83;;;4.37;;
7410;SDS011;3747;48.628;9.058;2022-07-29T10:04:09;4.23;;;3.83;;
7410;SDS011;3747;48.628;9.058;2022-07-29T10:06:37;4.70;;;4.25;;
7410;SDS011;3747;48.628;9.058;2022-07-29T10:09:21;4.47;;;4.18;;
7410;SDS011;3747;48.628;9.058;2022-07-29T10:12:01;5.88;;;3.90;;
7410;SDS011;3747;48.628;9.058;2022-07-29T10:14:29;3.95;;;3.63;;
7410;SDS011;3747;48.628;9.058;2022-07-29T10:16:56;3.95;;;3.65;;
7410;SDS011;3747;48.628;9.058;2022-07-29T10:19:25;4.18;;;3.88;;
7410;SDS011;3747;48.628;9.058;2022-07-29T10:21:53;4.20;;;3.63;;
7410;SDS011;3747;48.628;9.058;2022-07-29T10:24:20;3.97;;;3.58;;
7410;SDS011;3747;48.628;9.058;2022-07-29T10:26:47;3.90;;;3.60;;
7410;SDS011;3747;48.628;9.058;2022-07-29T10:29:14;3.90;;;3.60;;
7410;SDS011;3747;48.628;9.058;2022-07-29T10:31:43;3.97;;;3.42;;
7410;SDS011;3747;48.628;9.058;2022-07-29T10:34:17;3.83;;;3.63;;
7410;SDS011;3747;48.628;9.058;2022-07-29T10:36:50;3.97;;;3.30;;
7410;SDS011;3747;48.628;9.058;2022-07-29T10:39:26;4.70;;;3.80;;
7410;SDS011;3747;48.628;9.058;2022-07-29T10:42:10;5.35;;;3.90;;
7410;SDS011;3747;48.628;9.058;2022-07-29T10:44:43;3.95;;;3.50;;
7410;SDS011;3747;48.628;9.058;2022-07-29T10:47:19;4.65;;;3.60;;
7410;SDS011;3747;48.628;9.058;2022-07-29T10:49:55;4.25;;;3.85;;
7410;SDS011;3747;48.628;9.058;2022-07-29T10:52:24;4.17;;;3.57;;
7410;SDS011;3747;48.628;9.058;2022-07-29T10:55:18;4.67;;;3.70;;
7410;SDS011;3747;48.628;9.058;2022-07-29T10:58:10;3.33;;;3.03;;
7410;SDS011;3747;48.628;9.058;2022-07-29T11:00:38;5.33;;;4.00;;
7410;SDS011;3747;48.628;9.058;2022-07-29T11:03:05;6.23;;;3.90;;
7410;SDS011;3747;48.628;9.058;2022-07-29T11:05:41;7.37;;;4.97;;
7410;SDS011;3747;48.628;9.058;2022-07-29T11:08:24;10.87;;;5.87;;
7410;SDS011;3747;48.628;9.058;2022-07-29T11:10:53;14.30;;;7.23;;
7410;SDS011;3747;48.628;9.058;2022-07-29T11:13:57;10.30;;;7.37;;
7410;SDS011;3747;48.628;9.058;2022-07-29T11:16:24;9.33;;;7.57;;
7410;SDS011;3747;48.628;9.058;2022-07-29T11:21:46;7.93;;;5.27;;
7410;SDS011;3747;48.628;9.058;2022-07-29T11:24:14;5.73;;;4.87;;
7410;SDS011;3747;48.628;9.058;2022-07-29T11:26:43;10.13;;;5.77;;
7410;SDS011;3747;48.628;9.058;2022-07-29T11:29:16;9.73;;;6.20;;
7410;SDS011;3747;48.628;9.058;2022-07-29T11:31:46;8.67;;;6.47;;
7410;SDS011;3747;48.628;9.058;2022-07-29T11:34:23;7.37;;;6.37;;
7410;SDS011;3747;48.628;9.058;2022-07-29T11:39:40;8.47;;;6.43;;
7410;SDS011;3747;48.628;9.058;2022-07-29T11:45:07;7.87;;;6.70;;
7410;SDS011;3747;48.628;9.058;2022-07-29T11:47:36;9.50;;;7.07;;
7410;SDS011;3747;48.628;9.058;2022-07-29T11:50:04;6.67;;;5.53;;
7410;SDS011;3747;48.628;9.058;2022-07-29T11:52:32;7.33;;;6.13;;
7410;SDS011;3747;48.628;9.058;2022-07-29T11:55:03;6.43;;;5.60;;
7410;SDS011;3747;48.628;9.058;2022-07-29T11:57:31;7.57;;;6.83;;
7410;SDS011;3747;48.628;9.058;2022-07-29T12:00:03;7.93;;;7.17;;
7410;SDS011;3747;48.628;9.058;2022-07-29T12:02:39;8.47;;;7.67;;
7410;SDS011;3747;48.628;9.058;2022-07-29T12:05:07;8.43;;;7.83;;
7410;SDS011;3747;48.628;9.058;2022-07-29T12:07:35;8.37;;;7.53;;
7410;SDS011;3747;48.628;9.058;2022-07-29T12:10:03;7.00;;;6.40;;
7410;SDS011;3747;48.628;9.058;2022-07-29T12:12:31;7.17;;;6.57;;
7410;SDS011;3747;48.628;9.058;2022-07-29T12:14:58;8.67;;;7.70;;
7410;SDS011;3747;48.628;9.058;2022-07-29T12:20:07;10.87;;;8.00;;
7410;SDS011;3747;48.628;9.058;2022-07-29T12:22:35;9.63;;;7.33;;
7410;SDS011;3747;48.628;9.058;2022-07-29T12:25:05;9.23;;;7.63;;
7410;SDS011;3747;48.628;9.058;2022-07-29T12:27:33;9.93;;;8.00;;
7410;SDS011;3747;48.628;9.058;2022-07-29T12:30:01;7.40;;;6.80;;
7410;SDS011;3747;48.628;9.058;2022-07-29T12:32:32;9.07;;;7.20;;
7410;SDS011;3747;48.628;9.058;2022-07-29T12:35:00;7.73;;;6.97;;
7410;SDS011;3747;48.628;9.058;2022-07-29T12:37:33;6.57;;;6.07;;
7410;SDS011;3747;48.628;9.058;2022-07-29T12:40:02;7.07;;;6.37;;
7410;SDS011;3747;48.628;9.058;2022-07-29T12:42:32;6.30;;;5.73;;
7410;SDS011;3747;48.628;9.058;2022-07-29T12:44:59;5.87;;;5.30;;
7410;SDS011;3747;48.628;9.058;2022-07-29T12:47:27;5.80;;;5.30;;
7410;SDS011;3747;48.628;9.058;2022-07-29T12:50:08;5.60;;;5.03;;
7410;SDS011;3747;48.628;9.058;2022-07-29T12:52:35;6.47;;;5.60;;
7410;SDS011;3747;48.628;9.058;2022-07-29T12:55:02;6.00;;;5.50;;
7410;SDS011;3747;48.628;9.058;2022-07-29T12:57:30;6.87;;;5.70;;
7410;SDS011;3747;48.628;9.058;2022-07-29T13:00:03;8.67;;;7.00;;
7410;SDS011;3747;48.628;9.058;2022-07-29T13:02:34;8.77;;;7.80;;
7410;SDS011;3747;48.628;9.058;2022-07-29T13:05:01;10.43;;;9.40;;
7410;SDS011;3747;48.628;9.058;2022-07-29T13:07:31;11.20;;;9.47;;
7410;SDS011;3747;48.628;9.058;2022-07-29T13:10:10;12.17;;;9.47;;
7410;SDS011;3747;48.628;9.058;2022-07-29T13:15:30;10.73;;;9.83;;
7410;SDS011;3747;48.628;9.058;2022-07-29T13:17:57;10.37;;;9.10;;
7410;SDS011;3747;48.628;9.058;2022-07-29T13:20:25;10.07;;;9.17;;
7410;SDS011;3747;48.628;9.058;2022-07-29T13:22:55;9.47;;;8.67;;
7410;SDS011;3747;48.628;9.058;2022-07-29T13:25:24;8.33;;;7.63;;
7410;SDS011;3747;48.628;9.058;2022-07-29T13:27:52;10.70;;;9.60;;
7410;SDS011;3747;48.628;9.058;2022-07-29T13:30:20;11.60;;;10.70;;
7410;SDS011;3747;48.628;9.058;2022-07-29T13:32:50;9.87;;;8.97;;
7410;SDS011;3747;48.628;9.058;2022-07-29T13:35:17;10.10;;;8.90;;
7410;SDS011;3747;48.628;9.058;2022-07-29T13:37:45;9.77;;;8.80;;
7410;SDS011;3747;48.628;9.058;2022-07-29T13:40:13;9.93;;;8.93;;
7410;SDS011;3747;48.628;9.058;2022-07-29T13:42:40;10.47;;;9.37;;
7410;SDS011;3747;48.628;9.058;2022-07-29T13:45:13;9.63;;;8.73;;
7410;SDS011;3747;48.628;9.058;2022-07-29T13:47:40;7.63;;;6.97;;
7410;SDS011;3747;48.628;9.058;2022-07-29T13:50:07;10.47;;;7.30;;
7410;SDS011;3747;48.628;9.058;2022-07-29T13:52:35;6.50;;;5.93;;
7410;SDS011;3747;48.628;9.058;2022-07-29T13:55:02;6.50;;;5.90;;
7410;SDS011;3747;48.628;9.058;2022-07-29T13:57:31;5.37;;;4.97;;
7410;SDS011;3747;48.628;9.058;2022-07-29T13:59:58;5.30;;;4.80;;
7410;SDS011;3747;48.628;9.058;2022-07-29T14:02:24;6.40;;;5.67;;
7410;SDS011;3747;48.628;9.058;2022-07-29T14:05:04;5.53;;;5.13;;
7410;SDS011;3747;48.628;9.058;2022-07-29T14:07:31;5.60;;;5.10;;
7410;SDS011;3747;48.628;9.058;2022-07-29T14:09:58;4.90;;;4.50;;
7410;SDS011;3747;48.628;9.058;2022-07-29T14:12:25;5.20;;;4.90;;
7410;SDS011;3747;48.628;9.058;2022-07-29T14:14:53;6.83;;;5.07;;
7410;SDS011;3747;48.628;9.058;2022-07-29T14:17:19;5.60;;;5.17;;
7410;SDS011;3747;48.628;9.058;2022-07-29T14:19:49;5.20;;;4.80;;
7410;SDS011;3747;48.628;9.058;2022-07-29T14:22:16;4.80;;;4.50;;
7410;SDS011;3747;48.628;9.058;2022-07-29T14:24:43;4.93;;;4.63;;
7410;SDS011;3747;48.628;9.058;2022-07-29T14:27:11;5.57;;;5.07;;
7410;SDS011;3747;48.628;9.058;2022-07-29T14:29:37;5.10;;;4.60;;
7410;SDS011;3747;48.628;9.058;2022-07-29T14:32:06;5.50;;;5.10;;
7410;SDS011;3747;48.628;9.058;2022-07-29T14:34:33;5.20;;;4.90;;
7410;SDS011;3747;48.628;9.058;2022-07-29T14:37:00;7.13;;;4.97;;
7410;SDS011;3747;48.628;9.058;2022-07-29T14:39:27;5.50;;;5.00;;
7410;SDS011;3747;48.628;9.058;2022-07-29T14:41:54;5.43;;;4.93;;
7410;SDS011;3747;48.628;9.058;2022-07-29T14:44:21;6.50;;;5.90;;
7410;SDS011;3747;48.628;9.058;2022-07-29T14:46:48;6.00;;;5.50;;
7410;SDS011;3747;48.628;9.058;2022-07-29T14:49:16;6.07;;;5.57;;
7410;SDS011;3747;48.628;9.058;2022-07-29T14:51:43;6.47;;;5.87;;
7410;SDS011;3747;48.628;9.058;2022-07-29T14:54:09;6.97;;;6.37;;
7410;SDS011;3747;48.628;9.058;2022-07-29T14:56:36;6.83;;;6.23;;
7410;SDS011;3747;48.628;9.058;2022-07-29T14:59:03;6.63;;;6.00;;
7410;SDS011;3747;48.628;9.058;2022-07-29T15:01:30;7.17;;;6.50;;
7410;SDS011;3747;48.628;9.058;2022-07-29T15:03:57;7.13;;;6.53;;
7410;SDS011;3747;48.628;9.058;2022-07-29T15:06:25;7.90;;;7.20;;
7410;SDS011;3747;48.628;9.058;2022-07-29T15:08:52;6.80;;;6.23;;
7410;SDS011;3747;48.628;9.058;2022-07-29T15:11:33;6.47;;;5.90;;
7410;SDS011;3747;48.628;9.058;2022-07-29T15:14:00;6.20;;;5.80;;
7410;SDS011;3747;48.628;9.058;2022-07-29T15:16:34;6.63;;;6.07;;
7410;SDS011;3747;48.628;9.058;2022-07-29T15:19:01;5.87;;;5.40;;
7410;SDS011;3747;48.628;9.058;2022-07-29T15:21:30;7.37;;;5.63;;
7410;SDS011;3747;48.628;9.058;2022-07-29T15:23:56;6.30;;;5.70;;
7410;SDS011;3747;48.628;9.058;2022-07-29T15:26:23;6.77;;;6.17;;
7410;SDS011;3747;48.628;9.058;2022-07-29T15:28:50;5.97;;;5.47;;
7410;SDS011;3747;48.628;9.058;2022-07-29T15:31:17;6.50;;;5.90;;
7410;SDS011;3747;48.628;9.058;2022-07-29T15:33:44;5.77;;;5.23;;
7410;SDS011;3747;48.628;9.058;2022-07-29T15:36:11;5.83;;;5.33;;